sensor_id;sensor_type;location;lat;lon;timestamp;pressure;altitude;pressure_sealevel;temperature;humidity
20119;BME280;10220;42.716;23.306;2023-04-26T00:00:45;94316.06;;;10.37;100.00
20119;BME280;10220;42.716;23.306;2023-04-26T00:03:11;94318.81;;;10.53;100.00
20119;BME280;10220;42.716;23.306;2023-04-26T00:05:39;94315.78;;;10.56;100.00
20119;BME280;10220;42.716;23.306;2023-04-26T00:08:05;94306.53;;;10.49;100.00
20119;BME280;10220;42.716;23.306;2023-04-26T00:10:30;94287.47;;;10.32;100.00
20119;BME280;10220;42.716;23.306;2023-04-26T00:12:56;94299.97;;;10.46;100.00
20119;BME280;10220;42.716;23.306;2023-04-26T00:15:21;94293.31;;;10.39;100.00
20119;BME280;10220;42.716;23.306;2023-04-26T00:17:47;94289.22;;;10.08;100.00
20119;BME280;10220;42.716;23.306;2023-04-26T00:20:15;94286.56;;;9.86;100.00
20119;BME280;10220;42.716;23.306;2023-04-26T00:22:41;94287.88;;;9.77;100.00
20119;BME280;10220;42.716;23.306;2023-04-26T00:25:07;94253.47;;;9.47;100.00
20119;BME280;10220;42.716;23.306;2023-04-26T00:27:33;94255.13;;;9.71;100.00
20119;BME280;10220;42.716;23.306;2023-04-26T00:29:58;94276.75;;;9.88;100.00
20119;BME280;10220;42.716;23.306;2023-04-26T00:32:23;94284.22;;;9.66;100.00
20119;BME280;10220;42.716;23.306;2023-04-26T00:34:49;94273.22;;;9.24;100.00
20119;BME280;10220;42.716;23.306;2023-04-26T00:37:14;94282.72;;;9.12;100.00
20119;BME280;10220;42.716;23.306;2023-04-26T00:39:42;94284.44;;;9.00;100.00
20119;BME280;10220;42.716;23.306;2023-04-26T00:42:07;94280.50;;;8.97;100.00
20119;BME280;10220;42.716;23.306;2023-04-26T00:44:33;94270.16;;;8.97;100.00
20119;BME280;10220;42.716;23.306;2023-04-26T00:46:58;94262.69;;;9.07;100.00
20119;BME280;10220;42.716;23.306;2023-04-26T00:49:24;94266.19;;;9.13;100.00
20119;BME280;10220;42.716;23.306;2023-04-26T00:51:53;94267.00;;;9.31;100.00
20119;BME280;10220;42.716;23.306;2023-04-26T00:54:20;94281.69;;;9.31;100.00
20119;BME280;10220;42.716;23.306;2023-04-26T00:56:46;94270.22;;;9.27;100.00
20119;BME280;10220;42.716;23.306;2023-04-26T00:59:11;94273.88;;;9.01;100.00
20119;BME280;10220;42.716;23.306;2023-04-26T01:01:39;94278.81;;;8.85;100.00
20119;BME280;10220;42.716;23.306;2023-04-26T01:04:06;94286.34;;;8.86;100.00
20119;BME280;10220;42.716;23.306;2023-04-26T01:06:33;94255.81;;;8.83;100.00
20119;BME280;10220;42.716;23.306;2023-04-26T01:09:01;94292.59;;;9.33;100.00
20119;BME280;10220;42.716;23.306;2023-04-26T01:11:28;94282.81;;;9.34;100.00
20119;BME280;10220;42.716;23.306;2023-04-26T01:13:55;94296.88;;;9.38;100.00
20119;BME280;10220;42.716;23.306;2023-04-26T01:16:20;94285.06;;;9.13;100.00
20119;BME280;10220;42.716;23.306;2023-04-26T01:18:51;94289.53;;;8.88;100.00
20119;BME280;10220;42.716;23.306;2023-04-26T01:21:20;94289.16;;;9.03;100.00
20119;BME280;10220;42.716;23.306;2023-04-26T01:23:47;94234.84;;;8.91;100.00
20119;BME280;10220;42.716;23.306;2023-04-26T01:26:13;94273.44;;;9.22;100.00
20119;BME280;10220;42.716;23.306;2023-04-26T01:28:38;94260.59;;;9.16;100.00
20119;BME280;10220;42.716;23.306;2023-04-26T01:31:03;94267.75;;;9.32;100.00
20119;BME280;10220;42.716;23.306;2023-04-26T01:33:29;94272.56;;;9.46;100.00
20119;BME280;10220;42.716;23.306;2023-04-26T01:35:57;94268.91;;;9.35;100.00
20119;BME280;10220;42.716;23.306;2023-04-26T01:38:23;94270.84;;;8.86;100.00
20119;BME280;10220;42.716;23.306;2023-04-26T01:40:48;94281.50;;;9.14;100.00
20119;BME280;10220;42.716;23.306;2023-04-26T01:43:14;94268.06;;;9.24;100.00
20119;BME280;10220;42.716;23.306;2023-04-26T01:45:45;94281.84;;;9.18;100.00
20119;BME280;10220;42.716;23.306;2023-04-26T01:48:11;94292.50;;;8.85;100.00
20119;BME280;10220;42.716;23.306;2023-04-26T01:50:36;94299.16;;;8.75;100.00
20119;BME280;10220;42.716;23.306;2023-04-26T01:53:02;94295.63;;;8.94;100.00
20119;BME280;10220;42.716;23.306;2023-04-26T01:55:27;94291.16;;;9.01;100.00
20119;BME280;10220;42.716;23.306;2023-04-26T01:57:55;94279.47;;;8.98;100.00
20119;BME280;10220;42.716;23.306;2023-04-26T02:00:21;94276.88;;;9.16;100.00
20119;BME280;10220;42.716;23.306;2023-04-26T02:02:47;94278.69;;;9.16;100.00
20119;BME280;10220;42.716;23.306;2023-04-26T02:05:12;94269.59;;;9.42;100.00
20119;BME280;10220;42.716;23.306;2023-04-26T02:07:37;94267.00;;;9.13;100.00
20119;BME280;10220;42.716;23.306;2023-04-26T02:10:03;94275.59;;;9.07;100.00
20119;BME280;10220;42.716;23.306;2023-04-26T02:12:29;94258.94;;;9.03;100.00
20119;BME280;10220;42.716;23.306;2023-04-26T02:14:57;94259.22;;;9.31;100.00
20119;BME280;10220;42.716;23.306;2023-04-26T02:17:24;94264.56;;;9.00;100.00
20119;BME280;10220;42.716;23.306;2023-04-26T02:19:50;94261.47;;;9.10;100.00
20119;BME280;10220;42.716;23.306;2023-04-26T02:22:16;94253.16;;;9.08;100.00
20119;BME280;10220;42.716;23.306;2023-04-26T02:24:41;94264.34;;;9.02;100.00
20119;BME280;10220;42.716;23.306;2023-04-26T02:27:07;94257.03;;;8.81;100.00
20119;BME280;10220;42.716;23.306;2023-04-26T02:29:32;94245.16;;;8.74;100.00
20119;BME280;10220;42.716;23.306;2023-04-26T02:31:57;94265.00;;;8.97;100.00
20119;BME280;10220;42.716;23.306;2023-04-26T02:34:23;94260.19;;;8.83;100.00
20119;BME280;10220;42.716;23.306;2023-04-26T02:36:48;94245.53;;;8.59;100.00
20119;BME280;10220;42.716;23.306;2023-04-26T02:39:17;94275.25;;;8.86;100.00
20119;BME280;10220;42.716;23.306;2023-04-26T02:41:42;94279.03;;;8.83;100.00
20119;BME280;10220;42.716;23.306;2023-04-26T02:44:07;94270.88;;;9.04;100.00
20119;BME280;10220;42.716;23.306;2023-04-26T02:46:33;94274.13;;;9.00;100.00
20119;BME280;10220;42.716;23.306;2023-04-26T02:48:58;94276.88;;;9.16;100.00
20119;BME280;10220;42.716;23.306;2023-04-26T02:51:42;94259.22;;;9.31;100.00
20119;BME280;10220;42.716;23.306;2023-04-26T02:54:07;94251.59;;;9.36;100.00
20119;BME280;10220;42.716;23.306;2023-04-26T02:56:33;94259.66;;;9.28;100.00
20119;BME280;10220;42.716;23.306;2023-04-26T02:58:58;94232.53;;;9.19;100.00
20119;BME280;10220;42.716;23.306;2023-04-26T03:01:24;94250.28;;;9.16;100.00
20119;BME280;10220;42.716;23.306;2023-04-26T03:03:49;94242.22;;;9.24;100.00
20119;BME280;10220;42.716;23.306;2023-04-26T03:06:15;94254.16;;;9.25;100.00
20119;BME280;10220;42.716;23.306;2023-04-26T03:08:40;94247.31;;;9.12;100.00
20119;BME280;10220;42.716;23.306;2023-04-26T03:11:05;94241.09;;;9.20;100.00
20119;BME280;10220;42.716;23.306;2023-04-26T03:13:31;94254.44;;;9.17;100.00
20119;BME280;10220;42.716;23.306;2023-04-26T03:15:56;94262.47;;;8.91;100.00
20119;BME280;10220;42.716;23.306;2023-04-26T03:18:22;94255.38;;;8.86;100.00
20119;BME280;10220;42.716;23.306;2023-04-26T03:20:47;94253.53;;;8.93;100.00
20119;BME280;10220;42.716;23.306;2023-04-26T03:23:13;94235.59;;;8.80;100.00
20119;BME280;10220;42.716;23.306;2023-04-26T03:25:38;94244.69;;;8.83;100.00
20119;BME280;10220;42.716;23.306;2023-04-26T03:28:04;94218.88;;;8.83;100.00
20119;BME280;10220;42.716;23.306;2023-04-26T03:30:29;94247.25;;;9.01;100.00
20119;BME280;10220;42.716;23.306;2023-04-26T03:32:55;94233.00;;;8.80;100.00
20119;BME280;10220;42.716;23.306;2023-04-26T03:35:21;94251.47;;;8.77;100.00
20119;BME280;10220;42.716;23.306;2023-04-26T03:37:47;94246.44;;;8.65;100.00
20119;BME280;10220;42.716;23.306;2023-04-26T03:40:12;94232.41;;;8.43;100.00
20119;BME280;10220;42.716;23.306;2023-04-26T03:42:38;94242.03;;;8.72;100.00
20119;BME280;10220;42.716;23.306;2023-04-26T03:45:04;94261.09;;;8.71;100.00
20119;BME280;10220;42.716;23.306;2023-04-26T03:47:29;94260.31;;;8.88;100.00
20119;BME280;10220;42.716;23.306;2023-04-26T03:49:55;94263.25;;;9.09;100.00
20119;BME280;10220;42.716;23.306;2023-04-26T03:52:21;94251.34;;;9.08;100.00
20119;BME280;10220;42.716;23.306;2023-04-26T03:54:47;94271.53;;;9.00;100.00
20119;BME280;10220;42.716;23.306;2023-04-26T03:57:12;94265.41;;;9.30;100.00
20119;BME280;10220;42.716;23.306;2023-04-26T03:59:38;94246.56;;;9.41;100.00
20119;BME280;10220;42.716;23.306;2023-04-26T04:02:03;94256.59;;;9.49;100.00
20119;BME280;10220;42.716;23.306;2023-04-26T04:04:29;94273.94;;;9.13;100.00
20119;BME280;10220;42.716;23.306;2023-04-26T04:06:54;94282.34;;;9.26;100.00
20119;BME280;10220;42.716;23.306;2023-04-26T04:09:20;94281.69;;;9.13;100.00
20119;BME280;10220;42.716;23.306;2023-04-26T04:11:45;94284.31;;;9.60;100.00
20119;BME280;10220;42.716;23.306;2023-04-26T04:14:11;94274.94;;;9.88;100.00
20119;BME280;10220;42.716;23.306;2023-04-26T04:16:36;94275.72;;;9.48;100.00
20119;BME280;10220;42.716;23.306;2023-04-26T04:19:02;94289.66;;;9.29;100.00
20119;BME280;10220;42.716;23.306;2023-04-26T04:21:27;94287.22;;;9.16;100.00
20119;BME280;10220;42.716;23.306;2023-04-26T04:23:53;94274.38;;;9.28;100.00
20119;BME280;10220;42.716;23.306;2023-04-26T04:26:18;94275.31;;;9.15;100.00
20119;BME280;10220;42.716;23.306;2023-04-26T04:28:45;94286.34;;;9.40;100.00
20119;BME280;10220;42.716;23.306;2023-04-26T04:31:11;94291.16;;;9.36;100.00
20119;BME280;10220;42.716;23.306;2023-04-26T04:33:37;94290.22;;;9.78;100.00
20119;BME280;10220;42.716;23.306;2023-04-26T04:36:03;94289.88;;;10.56;100.00
20119;BME280;10220;42.716;23.306;2023-04-26T04:38:31;94283.00;;;10.84;100.00
20119;BME280;10220;42.716;23.306;2023-04-26T04:40:56;94285.72;;;11.63;100.00
20119;BME280;10220;42.716;23.306;2023-04-26T04:43:22;94280.00;;;12.05;100.00
20119;BME280;10220;42.716;23.306;2023-04-26T04:45:48;94267.44;;;10.96;100.00
20119;BME280;10220;42.716;23.306;2023-04-26T04:48:14;94300.00;;;11.03;100.00
20119;BME280;10220;42.716;23.306;2023-04-26T04:50:40;94291.78;;;10.72;100.00
20119;BME280;10220;42.716;23.306;2023-04-26T04:53:06;94304.06;;;10.88;100.00
20119;BME280;10220;42.716;23.306;2023-04-26T04:55:33;94297.69;;;10.27;100.00
20119;BME280;10220;42.716;23.306;2023-04-26T04:57:58;94295.72;;;10.74;100.00
20119;BME280;10220;42.716;23.306;2023-04-26T05:00:24;94291.88;;;10.54;100.00
20119;BME280;10220;42.716;23.306;2023-04-26T05:02:49;94291.53;;;10.28;100.00
20119;BME280;10220;42.716;23.306;2023-04-26T05:05:15;94287.94;;;10.29;100.00
20119;BME280;10220;42.716;23.306;2023-04-26T05:07:40;94288.16;;;10.39;100.00
20119;BME280;10220;42.716;23.306;2023-04-26T05:10:07;94290.53;;;10.63;100.00
20119;BME280;10220;42.716;23.306;2023-04-26T05:12:32;94294.16;;;10.96;100.00
20119;BME280;10220;42.716;23.306;2023-04-26T05:14:59;94294.00;;;11.25;100.00
20119;BME280;10220;42.716;23.306;2023-04-26T05:17:25;94284.03;;;11.45;100.00
20119;BME280;10220;42.716;23.306;2023-04-26T05:19:50;94290.63;;;11.75;100.00
20119;BME280;10220;42.716;23.306;2023-04-26T05:22:16;94293.34;;;11.97;100.00
20119;BME280;10220;42.716;23.306;2023-04-26T05:24:45;94302.09;;;12.07;100.00
20119;BME280;10220;42.716;23.306;2023-04-26T05:27:11;94292.38;;;12.30;100.00
20119;BME280;10220;42.716;23.306;2023-04-26T05:29:37;94304.16;;;12.22;100.00
20119;BME280;10220;42.716;23.306;2023-04-26T05:32:02;94309.59;;;12.20;100.00
20119;BME280;10220;42.716;23.306;2023-04-26T05:34:28;94311.72;;;12.07;100.00
20119;BME280;10220;42.716;23.306;2023-04-26T05:36:53;94299.63;;;12.29;100.00
20119;BME280;10220;42.716;23.306;2023-04-26T05:39:19;94302.31;;;12.33;100.00
20119;BME280;10220;42.716;23.306;2023-04-26T05:41:45;94317.78;;;12.12;100.00
20119;BME280;10220;42.716;23.306;2023-04-26T05:44:14;94300.09;;;12.26;100.00
20119;BME280;10220;42.716;23.306;2023-04-26T05:46:40;94322.72;;;12.58;100.00
20119;BME280;10220;42.716;23.306;2023-04-26T05:49:06;94332.00;;;12.54;100.00
20119;BME280;10220;42.716;23.306;2023-04-26T05:51:31;94322.56;;;12.81;100.00
20119;BME280;10220;42.716;23.306;2023-04-26T05:53:57;94322.56;;;12.81;100.00
20119;BME280;10220;42.716;23.306;2023-04-26T05:56:22;94334.31;;;13.16;100.00
20119;BME280;10220;42.716;23.306;2023-04-26T05:58:50;94331.38;;;13.29;100.00
20119;BME280;10220;42.716;23.306;2023-04-26T06:01:18;94337.75;;;13.21;100.00
20119;BME280;10220;42.716;23.306;2023-04-26T06:03:45;94334.63;;;13.03;100.00
20119;BME280;10220;42.716;23.306;2023-04-26T06:06:10;94335.56;;;12.97;100.00
20119;BME280;10220;42.716;23.306;2023-04-26T06:08:36;94322.66;;;13.02;100.00
20119;BME280;10220;42.716;23.306;2023-04-26T06:11:03;94340.53;;;12.82;100.00
20119;BME280;10220;42.716;23.306;2023-04-26T06:13:28;94339.91;;;12.91;100.00
20119;BME280;10220;42.716;23.306;2023-04-26T06:16:00;94301.44;;;12.28;100.00
20119;BME280;10220;42.716;23.306;2023-04-26T06:18:26;94315.31;;;12.66;100.00
20119;BME280;10220;42.716;23.306;2023-04-26T06:20:51;94330.59;;;12.95;100.00
20119;BME280;10220;42.716;23.306;2023-04-26T06:23:17;94333.03;;;12.69;100.00
20119;BME280;10220;42.716;23.306;2023-04-26T06:25:42;94340.22;;;12.95;100.00
20119;BME280;10220;42.716;23.306;2023-04-26T06:28:10;94324.56;;;13.28;100.00
20119;BME280;10220;42.716;23.306;2023-04-26T06:30:36;94322.34;;;13.79;100.00
20119;BME280;10220;42.716;23.306;2023-04-26T06:33:01;94324.31;;;13.88;100.00
20119;BME280;10220;42.716;23.306;2023-04-26T06:35:27;94325.25;;;14.25;100.00
20119;BME280;10220;42.716;23.306;2023-04-26T06:37:52;94315.56;;;14.47;100.00
20119;BME280;10220;42.716;23.306;2023-04-26T06:40:18;94333.31;;;14.50;100.00
20119;BME280;10220;42.716;23.306;2023-04-26T06:42:43;94332.38;;;14.34;100.00
20119;BME280;10220;42.716;23.306;2023-04-26T06:45:19;94341.53;;;13.51;100.00
20119;BME280;10220;42.716;23.306;2023-04-26T06:47:45;94340.50;;;13.31;100.00
20119;BME280;10220;42.716;23.306;2023-04-26T06:50:11;94334.84;;;13.18;100.00
20119;BME280;10220;42.716;23.306;2023-04-26T06:52:39;94325.81;;;12.88;100.00
20119;BME280;10220;42.716;23.306;2023-04-26T06:55:05;94331.72;;;12.23;100.00
20119;BME280;10220;42.716;23.306;2023-04-26T06:57:31;94348.88;;;12.68;100.00
20119;BME280;10220;42.716;23.306;2023-04-26T07:00:42;94297.66;;;12.68;100.00
20119;BME280;10220;42.716;23.306;2023-04-26T07:02:45;94352.34;;;13.06;100.00
20119;BME280;10220;42.716;23.306;2023-04-26T07:05:10;94349.44;;;12.86;100.00
20119;BME280;10220;42.716;23.306;2023-04-26T07:07:36;94347.81;;;13.34;100.00
20119;BME280;10220;42.716;23.306;2023-04-26T07:10:05;94289.00;;;13.12;100.00
20119;BME280;10220;42.716;23.306;2023-04-26T07:12:33;94347.38;;;13.21;100.00
20119;BME280;10220;42.716;23.306;2023-04-26T07:14:59;94323.66;;;12.85;100.00
20119;BME280;10220;42.716;23.306;2023-04-26T07:17:26;94328.16;;;12.73;100.00
20119;BME280;10220;42.716;23.306;2023-04-26T07:19:51;94329.56;;;12.64;100.00
20119;BME280;10220;42.716;23.306;2023-04-26T07:22:17;94372.22;;;12.35;100.00
20119;BME280;10220;42.716;23.306;2023-04-26T07:24:42;94336.38;;;12.21;100.00
20119;BME280;10220;42.716;23.306;2023-04-26T07:27:08;94356.19;;;12.71;100.00
20119;BME280;10220;42.716;23.306;2023-04-26T07:29:34;94362.25;;;12.60;100.00
20119;BME280;10220;42.716;23.306;2023-04-26T07:31:59;94358.44;;;12.51;100.00
20119;BME280;10220;42.716;23.306;2023-04-26T07:34:25;94359.00;;;12.53;100.00
20119;BME280;10220;42.716;23.306;2023-04-26T07:36:50;94368.66;;;12.85;100.00
20119;BME280;10220;42.716;23.306;2023-04-26T07:39:17;94377.56;;;13.05;100.00
20119;BME280;10220;42.716;23.306;2023-04-26T07:41:42;94367.94;;;12.29;100.00
20119;BME280;10220;42.716;23.306;2023-04-26T07:44:09;94351.81;;;11.88;100.00
20119;BME280;10220;42.716;23.306;2023-04-26T07:46:34;94372.50;;;12.22;100.00
20119;BME280;10220;42.716;23.306;2023-04-26T07:48:59;94369.09;;;12.22;100.00
20119;BME280;10220;42.716;23.306;2023-04-26T07:51:25;94363.75;;;12.28;100.00
20119;BME280;10220;42.716;23.306;2023-04-26T07:53:51;94369.75;;;12.29;100.00
20119;BME280;10220;42.716;23.306;2023-04-26T07:56:17;94368.25;;;12.32;100.00
20119;BME280;10220;42.716;23.306;2023-04-26T07:58:42;94375.72;;;12.29;100.00
20119;BME280;10220;42.716;23.306;2023-04-26T08:01:08;94377.31;;;12.46;100.00
20119;BME280;10220;42.716;23.306;2023-04-26T08:03:36;94375.91;;;12.11;100.00
20119;BME280;10220;42.716;23.306;2023-04-26T08:06:01;94379.69;;;11.92;100.00
20119;BME280;10220;42.716;23.306;2023-04-26T08:08:27;94371.47;;;11.84;100.00
20119;BME280;10220;42.716;23.306;2023-04-26T08:10:53;94362.41;;;11.98;100.00
20119;BME280;10220;42.716;23.306;2023-04-26T08:13:19;94371.88;;;12.31;100.00
20119;BME280;10220;42.716;23.306;2023-04-26T08:15:48;94378.66;;;12.49;100.00
20119;BME280;10220;42.716;23.306;2023-04-26T08:18:13;94385.25;;;12.68;100.00
20119;BME280;10220;42.716;23.306;2023-04-26T08:20:40;94380.03;;;12.68;100.00
20119;BME280;10220;42.716;23.306;2023-04-26T08:23:06;94387.50;;;12.64;100.00
20119;BME280;10220;42.716;23.306;2023-04-26T08:25:32;94369.22;;;12.59;100.00
20119;BME280;10220;42.716;23.306;2023-04-26T08:27:59;94387.56;;;12.53;100.00
20119;BME280;10220;42.716;23.306;2023-04-26T08:30:24;94383.47;;;13.01;100.00
20119;BME280;10220;42.716;23.306;2023-04-26T08:32:50;94385.13;;;13.07;100.00
20119;BME280;10220;42.716;23.306;2023-04-26T08:35:15;94379.97;;;12.79;100.00
20119;BME280;10220;42.716;23.306;2023-04-26T08:37:41;94373.81;;;12.52;100.00
20119;BME280;10220;42.716;23.306;2023-04-26T08:40:07;94376.88;;;12.66;100.00
20119;BME280;10220;42.716;23.306;2023-04-26T08:42:41;94379.16;;;12.90;100.00
20119;BME280;10220;42.716;23.306;2023-04-26T08:45:09;94376.75;;;13.05;100.00
20119;BME280;10220;42.716;23.306;2023-04-26T08:47:47;94383.00;;;12.88;100.00
20119;BME280;10220;42.716;23.306;2023-04-26T08:50:14;94376.00;;;13.04;100.00
20119;BME280;10220;42.716;23.306;2023-04-26T08:52:41;94363.75;;;13.05;100.00
20119;BME280;10220;42.716;23.306;2023-04-26T08:55:10;94393.38;;;13.37;100.00
20119;BME280;10220;42.716;23.306;2023-04-26T08:57:37;94382.16;;;13.52;100.00
20119;BME280;10220;42.716;23.306;2023-04-26T09:00:05;94375.72;;;13.39;100.00
20119;BME280;10220;42.716;23.306;2023-04-26T09:02:34;94367.84;;;13.71;100.00
20119;BME280;10220;42.716;23.306;2023-04-26T09:05:00;94380.97;;;13.60;100.00
20119;BME280;10220;42.716;23.306;2023-04-26T09:07:30;94379.44;;;13.43;100.00
20119;BME280;10220;42.716;23.306;2023-04-26T09:09:58;94400.38;;;13.52;100.00
20119;BME280;10220;42.716;23.306;2023-04-26T09:12:24;94387.66;;;13.94;100.00
20119;BME280;10220;42.716;23.306;2023-04-26T09:14:50;94390.69;;;13.86;100.00
20119;BME280;10220;42.716;23.306;2023-04-26T09:17:29;94400.63;;;13.35;100.00
20119;BME280;10220;42.716;23.306;2023-04-26T09:19:56;94389.44;;;13.34;100.00
20119;BME280;10220;42.716;23.306;2023-04-26T09:22:32;94392.44;;;13.43;100.00
20119;BME280;10220;42.716;23.306;2023-04-26T09:24:59;94396.66;;;13.65;100.00
20119;BME280;10220;42.716;23.306;2023-04-26T09:27:43;94387.91;;;13.92;100.00
20119;BME280;10220;42.716;23.306;2023-04-26T09:30:15;94396.00;;;13.58;100.00
20119;BME280;10220;42.716;23.306;2023-04-26T09:38:02;94381.22;;;14.01;100.00
20119;BME280;10220;42.716;23.306;2023-04-26T09:40:30;94394.16;;;13.75;97.62
20119;BME280;10220;42.716;23.306;2023-04-26T09:43:19;94382.53;;;13.61;98.29
20119;BME280;10220;42.716;23.306;2023-04-26T09:45:49;94380.97;;;13.81;98.76
20119;BME280;10220;42.716;23.306;2023-04-26T09:48:16;94386.88;;;14.14;97.82
20119;BME280;10220;42.716;23.306;2023-04-26T09:50:43;94381.50;;;14.47;96.44
20119;BME280;10220;42.716;23.306;2023-04-26T09:53:10;94368.28;;;14.54;92.96
20119;BME280;10220;42.716;23.306;2023-04-26T09:55:36;94385.88;;;14.68;88.36
20119;BME280;10220;42.716;23.306;2023-04-26T09:58:11;94384.94;;;14.53;88.20
20119;BME280;10220;42.716;23.306;2023-04-26T10:00:37;94381.56;;;14.52;88.20
20119;BME280;10220;42.716;23.306;2023-04-26T10:03:04;94373.41;;;14.70;81.56
20119;BME280;10220;42.716;23.306;2023-04-26T10:05:31;94372.41;;;15.43;90.20
20119;BME280;10220;42.716;23.306;2023-04-26T10:07:57;94369.78;;;15.07;78.26
20119;BME280;10220;42.716;23.306;2023-04-26T10:10:22;94376.66;;;14.56;75.84
20119;BME280;10220;42.716;23.306;2023-04-26T10:12:48;94382.63;;;14.56;76.48
20119;BME280;10220;42.716;23.306;2023-04-26T10:15:13;94374.31;;;14.59;76.87
20119;BME280;10220;42.716;23.306;2023-04-26T10:17:39;94374.91;;;14.66;75.01
20119;BME280;10220;42.716;23.306;2023-04-26T10:20:09;94368.03;;;14.86;75.54
20119;BME280;10220;42.716;23.306;2023-04-26T10:22:43;94361.28;;;14.59;74.22
20119;BME280;10220;42.716;23.306;2023-04-26T10:25:10;94361.44;;;14.74;80.50
20119;BME280;10220;42.716;23.306;2023-04-26T10:27:48;94376.03;;;14.75;78.02
20119;BME280;10220;42.716;23.306;2023-04-26T10:30:18;94374.94;;;14.97;75.92
20119;BME280;10220;42.716;23.306;2023-04-26T10:35:29;94366.69;;;14.53;67.97
20119;BME280;10220;42.716;23.306;2023-04-26T10:40:28;94360.56;;;15.26;69.37
20119;BME280;10220;42.716;23.306;2023-04-26T10:45:47;94362.75;;;15.08;61.82
20119;BME280;10220;42.716;23.306;2023-04-26T10:48:35;94365.59;;;15.37;66.34
20119;BME280;10220;42.716;23.306;2023-04-26T10:53:27;94359.38;;;14.50;69.40
20119;BME280;10220;42.716;23.306;2023-04-26T10:55:53;94358.63;;;14.54;62.34
20119;BME280;10220;42.716;23.306;2023-04-26T10:58:26;94344.81;;;14.54;62.79
20119;BME280;10220;42.716;23.306;2023-04-26T11:01:05;94363.31;;;15.15;64.03
20119;BME280;10220;42.716;23.306;2023-04-26T11:03:31;94353.09;;;15.44;64.24
20119;BME280;10220;42.716;23.306;2023-04-26T11:05:57;94357.66;;;15.64;61.26
20119;BME280;10220;42.716;23.306;2023-04-26T11:08:29;94347.25;;;15.27;60.93
20119;BME280;10220;42.716;23.306;2023-04-26T11:13:43;94350.00;;;15.47;62.74
20119;BME280;10220;42.716;23.306;2023-04-26T11:16:09;94349.88;;;15.27;61.00
20119;BME280;10220;42.716;23.306;2023-04-26T11:18:36;94357.47;;;15.75;63.93
20119;BME280;10220;42.716;23.306;2023-04-26T11:21:04;94352.22;;;15.29;59.39
20119;BME280;10220;42.716;23.306;2023-04-26T11:23:33;94338.00;;;14.79;60.06
20119;BME280;10220;42.716;23.306;2023-04-26T11:26:04;94346.09;;;14.82;62.00
20119;BME280;10220;42.716;23.306;2023-04-26T11:28:32;94347.06;;;15.03;62.74
20119;BME280;10220;42.716;23.306;2023-04-26T11:30:58;94354.28;;;14.96;65.09
20119;BME280;10220;42.716;23.306;2023-04-26T11:33:26;94342.00;;;14.91;63.59
20119;BME280;10220;42.716;23.306;2023-04-26T11:35:53;94364.19;;;14.94;64.33
20119;BME280;10220;42.716;23.306;2023-04-26T11:38:27;94354.97;;;15.18;63.58
20119;BME280;10220;42.716;23.306;2023-04-26T11:43:43;94358.69;;;15.63;62.41
20119;BME280;10220;42.716;23.306;2023-04-26T11:46:08;94359.75;;;15.67;62.71
20119;BME280;10220;42.716;23.306;2023-04-26T11:48:35;94349.56;;;15.65;59.68
20119;BME280;10220;42.716;23.306;2023-04-26T11:51:04;94348.59;;;15.81;61.02
20119;BME280;10220;42.716;23.306;2023-04-26T11:53:39;94349.78;;;16.15;60.60
20119;BME280;10220;42.716;23.306;2023-04-26T11:56:25;94347.25;;;15.74;60.93
20119;BME280;10220;42.716;23.306;2023-04-26T11:58:51;94356.50;;;15.91;60.54
20119;BME280;10220;42.716;23.306;2023-04-26T12:01:21;94348.66;;;16.01;61.10
20119;BME280;10220;42.716;23.306;2023-04-26T12:03:52;94356.13;;;15.68;61.18
20119;BME280;10220;42.716;23.306;2023-04-26T12:06:18;94349.66;;;15.85;63.82
20119;BME280;10220;42.716;23.306;2023-04-26T12:08:50;94347.84;;;15.90;60.58
20119;BME280;10220;42.716;23.306;2023-04-26T12:11:16;94338.75;;;15.98;61.83
20119;BME280;10220;42.716;23.306;2023-04-26T12:13:42;94358.09;;;16.02;61.92
20119;BME280;10220;42.716;23.306;2023-04-26T12:16:12;94331.81;;;15.67;61.20
20119;BME280;10220;42.716;23.306;2023-04-26T12:18:38;94352.84;;;15.92;63.16
20119;BME280;10220;42.716;23.306;2023-04-26T12:21:04;94349.72;;;16.00;61.57
20119;BME280;10220;42.716;23.306;2023-04-26T12:23:39;94352.97;;;15.66;59.29
20119;BME280;10220;42.716;23.306;2023-04-26T12:26:05;94344.00;;;15.47;61.01
20119;BME280;10220;42.716;23.306;2023-04-26T12:28:31;94362.06;;;15.58;63.50
20119;BME280;10220;42.716;23.306;2023-04-26T12:30:57;94349.00;;;15.53;63.28
20119;BME280;10220;42.716;23.306;2023-04-26T12:33:22;94343.22;;;15.51;62.58
20119;BME280;10220;42.716;23.306;2023-04-26T12:35:49;94347.69;;;15.56;60.72
20119;BME280;10220;42.716;23.306;2023-04-26T12:38:15;94349.16;;;15.37;61.30
20119;BME280;10220;42.716;23.306;2023-04-26T12:40:41;94340.31;;;15.43;63.95
20119;BME280;10220;42.716;23.306;2023-04-26T12:43:07;94335.59;;;15.04;63.34
20119;BME280;10220;42.716;23.306;2023-04-26T12:45:33;94326.47;;;14.75;65.62
20119;BME280;10220;42.716;23.306;2023-04-26T12:47:58;94337.34;;;14.98;65.25
20119;BME280;10220;42.716;23.306;2023-04-26T12:50:24;94328.88;;;15.18;64.33
20119;BME280;10220;42.716;23.306;2023-04-26T12:52:49;94347.59;;;15.05;62.91
20119;BME280;10220;42.716;23.306;2023-04-26T12:55:15;94345.44;;;14.97;63.46
20119;BME280;10220;42.716;23.306;2023-04-26T12:57:42;94338.91;;;14.94;61.28
20119;BME280;10220;42.716;23.306;2023-04-26T13:00:15;94341.16;;;14.81;62.35
20119;BME280;10220;42.716;23.306;2023-04-26T13:02:42;94336.66;;;15.08;65.10
20119;BME280;10220;42.716;23.306;2023-04-26T13:05:08;94339.06;;;15.19;65.50